• Join FlightAware (Why Join?)
  • Login
  • US Flag 
12:11PM EDT


 

Airport Tracker/Info


-or-


 

Live Flight TrackerFlight Track Log ✈ SWA279 ✈ 16-Apr-2013 ✈ KHOU - KLAX

Flight Track Log - Related Links

Times and Time Zones

All times are in EDT time to prevent confusion due to time zone crossing. See the SWA279 flight status page for this flight to view local times or setup timezone preferences in your user account.

Time Position Orientation Groundspeed Altitude Reporting Facility
EDT Latitude Longitude Course Direction KTS MPH feet Rate Location/Type
05:01PM 29.5925 -95.2797 203° Southwest 212 244 2,600  Level Houston Center
05:02PM 29.5569 -95.3464 238° Southwest 243 280 5,400 2,460 Climbing Houston Center
05:03PM 29.5181 -95.4156 237° Southwest 254 292 7,700 2,580 Climbing Houston Center
05:04PM 29.5483 -95.5189 289° West 296 341 10,800 2,340 Climbing Houston Center
05:05PM 29.6008 -95.6117 303° West 334 384 12,600 2,100 Climbing Houston Center
05:06PM 29.6567 -95.7092 303° West 362 417 15,200 2,400 Climbing Houston Center
05:07PM 29.7103 -95.8064 302° West 359 413 17,700 2,280 Climbing Houston Center
05:08PM 29.7669 -95.9064 303° West 369 425 20,000 1,920 Climbing Houston Center
05:09PM 29.8128 -96.0122 297° West 371 427 21,700 1,380 Climbing Houston Center
05:10PM 29.8706 -96.1375 298° West 381 438 22,900 600 Climbing Houston Center
05:11PM 29.9175 -96.2381 298° West 361 415 23,000  Climbing Houston Center
05:12PM 29.9678 -96.3425 299° West 371 427 23,000  Level Houston Center
05:13PM 30.0183 -96.4508 298° West 383 441 23,000 360 Level Houston Center
05:14PM 30.0517 -96.5722 288° West 396 456 23,800 1,440 Climbing Houston Center
05:15PM 30.0856 -96.7197 285° West 398 458 26,000 1,620 Climbing Houston Center
05:16PM 30.1153 -96.8475 285° West 399 459 27,200 1,380 Climbing Houston Center
05:17PM 30.1456 -96.9769 285° West 410 472 28,900 1,500 Climbing Houston Center
05:18PM 30.1781 -97.1086 286° West 418 481 30,400 1,740 Climbing Houston Center
05:19PM 30.2031 -97.2333 283° West 398 458 32,500 1,560 Climbing Houston Center
05:20PM 30.2297 -97.3561 284° West 390 449 33,700 1,200 Climbing Houston Center
05:21PM 30.2556 -97.4767 284° West 384 442 35,100 840 Climbing Houston Center
05:22PM 30.2822 -97.5969 284° West 383 441 35,500 420 Climbing Houston Center
05:23PM 30.3136 -97.7453 284° West 398 458 36,000 240 Climbing Houston Center
05:24PM 30.3394 -97.8700 284° West 396 456 36,000  Level Houston Center
05:25PM 30.3661 -97.9925 284° West 389 448 36,000  Level Houston Center
05:26PM 30.3906 -98.1144 283° West 386 444 36,000  Level Houston Center
05:27PM 30.4150 -98.2367 283° West 384 442 36,000  Level Houston Center
05:28PM 30.4422 -98.3586 285° West 386 444 36,000  Level Houston Center
05:29PM 30.4672 -98.4811 283° West 386 444 36,000  Level Houston Center
05:31PM 30.4964 -98.6261 283° West 391 450 36,000  Level Houston Center
05:32PM 30.5217 -98.7511 283° West 394 453 36,000  Level Houston Center
05:33PM 30.5483 -98.8775 284° West 398 458 36,000  Level Houston Center
05:34PM 30.5742 -99.0047 283° West 400 460 36,000  Level Houston Center
05:35PM 30.5989 -99.1311 283° West 399 459 36,000  Level Houston Center
05:36PM 30.6272 -99.2683 284° West 399 459 36,000  Level Houston Center
05:37PM 30.6514 -99.3936 283° West 400 460 36,000  Level Houston Center
05:38PM 30.6775 -99.5203 284° West 403 464 36,000  Level Houston Center
05:39PM 30.7017 -99.6461 283° West 402 463 36,000  Level Houston Center
05:40PM 30.7267 -99.7719 283° West 402 463 36,000  Level Houston Center
05:41PM 30.7567 -99.9225 283° West 401 461 36,000  Level Houston Center
05:42PM 30.7792 -100.0458 282° West 396 456 36,000  Level Houston Center
05:43PM 30.8017 -100.1681 282° West 391 450 36,000  Level Houston Center
05:44PM 30.8256 -100.2892 283° West 391 450 36,000  Level Houston Center
05:45PM 30.8478 -100.4131 282° West 394 453 36,000  Level Houston Center
05:46PM 30.8769 -100.5561 283° West 388 447 36,000  Level Houston Center
05:47PM 30.9003 -100.6811 282° West 395 455 36,000  Level Houston Center
05:48PM 30.9219 -100.8044 282° West 393 452 36,000  Level Houston Center
05:49PM 30.9442 -100.9283 282° West 396 456 36,000  Level Houston Center
05:50PM 30.9669 -101.0514 282° West 393 452 36,000  Level Houston Center
05:51PM 30.9956 -101.1969 283° West 388 447 36,000  Level Houston Center
05:52PM 31.0197 -101.3186 283° West 387 445 36,000  Level Houston Center
05:53PM 31.0414 -101.4503 281° West 393 452 36,000  Level Houston Center
05:54PM 31.0461 -101.4747 283° West 392 451 36,000  Level Albuquerque Center
05:55PM 31.0725 -101.6233 282° West 392 451 36,000  Level Albuquerque Center
05:56PM 31.0947 -101.7481 282° West 392 451 36,000  Level Albuquerque Center
05:57PM 31.1161 -101.8722 281° West 392 451 36,000  Level Albuquerque Center
05:58PM 31.1350 -101.9872 281° West 402 463 36,000  Level Albuquerque Center
05:59PM 31.1608 -102.1353 282° West 393 452 36,000  Level Albuquerque Center
06:00PM 31.1836 -102.2594 282° West 391 450 36,000  Level Albuquerque Center
06:01PM 31.2056 -102.3844 282° West 392 451 36,000  Level Albuquerque Center
06:02PM 31.2267 -102.5125 281° West 398 458 36,000  Level Albuquerque Center
06:03PM 31.2481 -102.6375 281° West 400 460 36,000 -60 Level Albuquerque Center
06:04PM 31.2703 -102.7658 281° West 400 460 35,900  Descending Albuquerque Center
06:05PM 31.2911 -102.8917 281° West 399 459 36,000  Climbing Albuquerque Center
06:06PM 31.3164 -103.0425 281° West 394 453 36,000  Level Albuquerque Center
06:07PM 31.3372 -103.1681 281° West 393 452 36,000  Level Albuquerque Center
06:08PM 31.3581 -103.2944 281° West 396 456 36,000  Level Albuquerque Center
06:09PM 31.3781 -103.4203 281° West 395 455 36,000  Level Albuquerque Center
06:10PM 31.3981 -103.5464 281° West 395 455 36,000  Level Albuquerque Center
06:11PM 31.4186 -103.6722 281° West 393 452 36,000  Level Albuquerque Center
06:12PM 31.4397 -103.7983 281° West 392 451 36,000  Level Albuquerque Center
06:13PM 31.4619 -103.9258 282° West 397 457 36,000  Level Albuquerque Center
06:14PM 31.4872 -104.0775 281° West 398 458 36,000 -60 Level Albuquerque Center
06:15PM 31.5067 -104.2033 280° West 397 457 35,900 -60 Descending Albuquerque Center
06:16PM 31.5267 -104.3281 281° West 394 453 35,900  Level Albuquerque Center
06:17PM 31.5456 -104.4525 280° West 392 451 36,000  Climbing Albuquerque Center
06:18PM 31.5644 -104.5767 280° West 391 450 36,000  Level Albuquerque Center
06:19PM 31.5833 -104.7017 280° West 391 450 36,000 -60 Level Albuquerque Center
06:20PM 31.6067 -104.8528 280° West 391 450 35,900 -60 Descending Albuquerque Center
06:21PM 31.6253 -104.9764 280° West 393 452 35,900  Level Albuquerque Center
06:22PM 31.6456 -105.1025 281° West 395 455 36,000  Climbing Albuquerque Center
06:23PM 31.6633 -105.2294 279° West 397 457 36,000 -60 Level Albuquerque Center
06:24PM 31.6819 -105.3572 280° West 401 461 35,900 -60 Descending Albuquerque Center
06:26PM 31.7000 -105.4853 279° West 398 458 35,900  Level Albuquerque Center
06:27PM 31.7225 -105.6356 280° West 392 451 36,000  Climbing Albuquerque Center
06:28PM 31.7403 -105.7619 279° West 393 452 35,900  Descending Albuquerque Center
06:29PM 31.7592 -105.8861 280° West 389 448 36,000  Climbing Albuquerque Center
06:30PM 31.7778 -106.0128 280° West 393 452 36,000  Level Albuquerque Center
06:31PM 31.7956 -106.1381 280° West 391 450 36,000  Level Albuquerque Center
06:32PM 31.8144 -106.2633 280° West 390 449 36,000 -60 Level Albuquerque Center
06:33PM 31.8417 -106.4144 282° West 395 455 35,900  Descending Albuquerque Center
06:34PM 31.8792 -106.5336 290° West 392 451 36,000  Climbing Albuquerque Center
06:35PM 31.9128 -106.6592 288° West 387 445 36,000  Level Albuquerque Center
06:36PM 31.9478 -106.7789 289° West 388 447 36,000  Level Albuquerque Center
06:37PM 31.9800 -106.9006 287° West 390 449 36,000  Level Albuquerque Center
06:38PM 32.0142 -107.0219 288° West 389 448 36,000  Level Albuquerque Center
06:39PM 32.0469 -107.1428 288° West 387 445 36,000  Level Albuquerque Center
06:40PM 32.0803 -107.2628 288° West 385 443 36,000  Level Albuquerque Center
06:41PM 32.1119 -107.3836 287° West 383 441 36,000  Level Albuquerque Center
06:42PM 32.1508 -107.5272 288° West 381 438 36,000 -60 Level Albuquerque Center
06:43PM 32.1828 -107.6475 287° West 381 438 35,900  Descending Albuquerque Center
06:44PM 32.2158 -107.7714 288° West 388 447 36,000  Climbing Albuquerque Center
06:45PM 32.2489 -107.8931 288° West 390 449 36,000  Level Albuquerque Center
06:46PM 32.2814 -108.0133 288° West 385 443 36,000  Level Albuquerque Center
06:47PM 32.3131 -108.1353 287° West 388 447 36,000  Level Albuquerque Center
06:48PM 32.3444 -108.2531 288° West 381 438 36,000  Level Albuquerque Center
06:49PM 32.3828 -108.3692 291° West 379 436 36,000  Level Albuquerque Center
06:50PM 32.4225 -108.5031 289° West 379 436 36,000  Level Albuquerque Center
06:51PM 32.4575 -108.6200 290° West 380 437 36,000  Level Albuquerque Center
06:52PM 32.4922 -108.7350 290° West 375 432 36,000  Level Albuquerque Center
06:53PM 32.5264 -108.8503 289° West 373 429 36,000  Level Albuquerque Center
06:54PM 32.5606 -108.9631 290° West 368 423 36,000  Level Albuquerque Center
06:55PM 32.5989 -109.0967 289° West 360 414 36,000  Level Albuquerque Center
06:56PM 32.6325 -109.2083 290° West 360 414 36,000  Level Albuquerque Center
06:57PM 32.6658 -109.3225 289° West 365 420 36,000  Level Albuquerque Center
06:58PM 32.6989 -109.4344 289° West 364 419 36,000  Level Albuquerque Center
06:59PM 32.7306 -109.5450 289° West 358 412 36,000  Level Albuquerque Center
07:01PM 32.7636 -109.6575 289° West 361 415 36,000  Level Albuquerque Center
07:02PM 32.8019 -109.7886 289° West 355 409 36,000  Level Albuquerque Center
07:03PM 32.8325 -109.8958 289° West 347 399 36,000  Level Albuquerque Center
07:04PM 32.8636 -110.0050 289° West 349 402 36,000  Level Albuquerque Center
07:05PM 32.8978 -110.1161 290° West 356 410 36,000  Level Albuquerque Center
07:06PM 32.9297 -110.2267 289° West 357 411 36,000  Level Albuquerque Center
07:07PM 32.9628 -110.3378 290° West 357 411 36,000  Level Albuquerque Center
07:08PM 32.9992 -110.4722 288° West 359 413 36,000  Level Albuquerque Center
07:09PM 33.0311 -110.5806 289° West 353 406 36,000  Level Albuquerque Center
07:10PM 33.0633 -110.6986 288° West 356 410 36,000  Level Albuquerque Center
07:11PM 33.0944 -110.8108 288° West 357 411 36,000  Level Albuquerque Center
07:12PM 33.1264 -110.9214 289° West 353 406 36,000  Level Albuquerque Center
07:13PM 33.1564 -111.0294 288° West 345 397 36,000  Level Albuquerque Center
07:14PM 33.1864 -111.1375 288° West 343 395 36,000  Level Albuquerque Center
07:15PM 33.2164 -111.2475 288° West 348 400 36,000  Level Albuquerque Center
07:16PM 33.2456 -111.3561 288° West 345 397 36,000  Level Albuquerque Center
07:17PM 33.2756 -111.4642 288° West 343 395 36,000  Level Albuquerque Center
07:18PM 33.3092 -111.5917 288° West 337 388 36,000  Level Albuquerque Center
07:19PM 33.3389 -111.7014 288° West 343 395 36,000  Level Albuquerque Center
07:20PM 33.3675 -111.8075 288° West 338 389 36,000  Level Albuquerque Center
07:21PM 33.3967 -111.9136 288° West 336 387 36,000 -60 Level Albuquerque Center
07:22PM 33.4233 -112.0169 287° West 337 388 35,900  Descending Albuquerque Center
07:23PM 33.4531 -112.1275 288° West 336 387 36,000  Climbing Albuquerque Center
07:24PM 33.4811 -112.2328 288° West 333 383 36,000  Level Albuquerque Center
07:25PM 33.5097 -112.3408 288° West 337 388 36,000  Level Albuquerque Center
07:26PM 33.5378 -112.4494 287° West 341 392 36,000  Level Albuquerque Center
07:27PM 33.5667 -112.5578 288° West 342 394 36,000  Level Albuquerque Center
07:28PM 33.5972 -112.6792 287° West 341 392 36,000  Level Albuquerque Center
07:29PM 33.6264 -112.7894 288° West 345 397 36,000  Level Albuquerque Center
07:30PM 33.6567 -112.9086 287° West 344 396 36,000  Level Albuquerque Center
07:31PM 33.6869 -113.0189 288° West 346 398 36,000  Level Albuquerque Center
07:32PM 33.7150 -113.1289 287° West 346 398 36,000  Level Albuquerque Center
07:33PM 33.7431 -113.2389 287° West 344 396 36,000  Level Albuquerque Center
07:34PM 33.7708 -113.3494 287° West 347 399 36,000  Level Albuquerque Center
07:35PM 33.7992 -113.4589 287° West 344 396 36,000  Level Albuquerque Center
07:36PM 33.8261 -113.5686 286° West 344 396 36,000  Level Albuquerque Center
07:37PM 33.8603 -113.7003 287° West 344 396 36,000  Level Albuquerque Center
07:38PM 33.8872 -113.8094 287° West 342 394 36,000  Level Albuquerque Center
07:39PM 33.9144 -113.9181 287° West 340 391 36,000  Level Albuquerque Center
07:41PM 33.9408 -114.0256 287° West 338 389 36,000  Level Albuquerque Center
07:42PM 33.9678 -114.1331 287° West 336 387 36,000  Level Albuquerque Center
07:43PM 33.9950 -114.2492 286° West 335 386 36,000  Level Albuquerque Center
07:44PM 34.0228 -114.3569 287° West 338 389 36,000  Level Albuquerque Center
07:44PM 34.0353 -114.4097 286° West 336 387 36,000  Level Los Angeles Center
07:45PM 34.0672 -114.5389 287° West 336 387 36,000 -60 Level Los Angeles Center
07:46PM 34.1183 -114.6367 302° West 351 404 35,900 -120 Descending Los Angeles Center
07:47PM 34.1836 -114.7211 313° West 350 403 35,800 -540 Descending Los Angeles Center
07:48PM 34.2286 -114.8172 300° West 329 379 34,800 -960 Descending Los Angeles Center
07:49PM 34.2164 -114.9242 262° West 321 369 33,900 -720 Descending Los Angeles Center
07:50PM 34.2050 -115.0356 263° West 331 381 33,400 -780 Descending Los Angeles Center
07:51PM 34.1886 -115.1767 262° West 352 405 32,400 -1,020 Descending Los Angeles Center
07:52PM 34.1756 -115.2964 263° West 359 413 31,400 -1,020 Descending Los Angeles Center
07:53PM 34.1611 -115.4100 261° West 349 402 30,300 -720 Descending Los Angeles Center
07:54PM 34.1483 -115.5231 262° West 343 395 30,000 -660 Descending Los Angeles Center
07:56PM 34.1361 -115.6328 262° West 336 387 29,000 -1,020 Descending Los Angeles Center
07:57PM 34.1236 -115.7425 262° West 332 382 28,000 -1,080 Descending Los Angeles Center
07:58PM 34.1094 -115.8653 262° West 313 360 26,800 -1,080 Descending Los Angeles Center
07:59PM 34.0969 -115.9664 262° West 307 353 25,800 -960 Descending Los Angeles Center
08:00PM 34.0850 -116.0650 262° West 302 348 24,900 -960 Descending Los Angeles Center
08:01PM 34.0731 -116.1642 262° West 300 345 23,900 -480 Descending Los Angeles Center
08:02PM 34.0608 -116.2617 261° West 297 342 24,000  Climbing Los Angeles Center
08:03PM 34.0467 -116.3792 262° West 297 342 24,000  Level Los Angeles Center
08:04PM 34.0336 -116.4806 261° West 305 351 24,000  Level Los Angeles Center
08:05PM 34.0219 -116.5831 262° West 308 354 24,000  Level Los Angeles Center
08:06PM 34.0092 -116.6814 261° West 302 348 24,000 -540 Level Los Angeles Center
08:07PM 33.9972 -116.7828 262° West 305 351 23,000 -1,020 Descending Los Angeles Center
08:08PM 33.9839 -116.8786 261° West 297 342 22,000 -1,680 Descending Los Angeles Center
08:09PM 33.9667 -116.9667 257° West 293 337 20,200 -2,400 Descending Southern California TRACON
08:10PM 33.9667 -117.0667 270° West 316 364 18,000 -1,680 Descending Southern California TRACON
08:11PM 33.9500 -117.1667 259° West 303 349 17,000 -540 Descending Southern California TRACON
08:12PM 33.9500 -117.2667 270° West 300 345 17,000 -60 Level Southern California TRACON
08:13PM 33.9333 -117.3667 259° West 323 372 16,900 -1,320 Descending Southern California TRACON
08:14PM 33.9667 -117.4667 292° West 311 358 14,400 -1,800 Descending Southern California TRACON
08:15PM 34.0000 -117.5500 296° West 284 327 13,300 -1,500 Descending Southern California TRACON
08:16PM 34.0333 -117.6500 292° West 323 372 11,500 -1,500 Descending Southern California TRACON
08:17PM 34.0167 -117.7333 256° West 257 296 10,300 -1,260 Descending Southern California TRACON
08:18PM 34.0167 -117.8167 270° West 268 308 9,000 -1,440 Descending Southern California TRACON
08:19PM 34.0000 -117.9167 259° West 266 306 7,500 -1,500 Descending Southern California TRACON
08:20PM 34.0000 -118.0000 270° West 259 298 6,100 -1,140 Descending Southern California TRACON
08:21PM 33.9833 -118.0833 256° West 235 270 5,300 -900 Descending Southern California TRACON
08:22PM 33.9833 -118.1500 270° West 220 253 4,300 -840 Descending Southern California TRACON
08:23PM 33.9717 -118.2144 258° West 211 243 3,600 -840 Descending Los Angeles Center
08:24PM 33.9656 -118.2711 263° West 187 215 2,600 -1,020 Descending Los Angeles Center
08:25PM 33.9592 -118.3353 263° West 172 198 1,500 -960 Descending Los Angeles Center
08:26PM 33.9564 -118.3742 265° West 137 158 700 -720 Descending Los Angeles Center
08:27PM 33.9511 -118.4156 261° West 124 143 100 -600 Descending Los Angeles Center
08:29PM 33.9425 -118.4081 180° South  Level Estimated